sensor_id;sensor_type;location;lat;lon;timestamp;temperature;humidity
26186;DHT22;20067;48.764;9.176;2023-02-15T00:01:18;2.80;91.30
26186;DHT22;20067;48.764;9.176;2023-02-15T00:03:43;2.70;91.30
26186;DHT22;20067;48.764;9.176;2023-02-15T00:06:09;2.60;91.30
26186;DHT22;20067;48.764;9.176;2023-02-15T00:08:36;2.60;91.30
26186;DHT22;20067;48.764;9.176;2023-02-15T00:11:16;2.60;91.30
26186;DHT22;20067;48.764;9.176;2023-02-15T00:14:04;2.70;91.30
26186;DHT22;20067;48.764;9.176;2023-02-15T00:16:31;2.70;91.30
26186;DHT22;20067;48.764;9.176;2023-02-15T00:18:57;2.70;91.30
26186;DHT22;20067;48.764;9.176;2023-02-15T00:21:27;2.60;91.30
26186;DHT22;20067;48.764;9.176;2023-02-15T00:23:54;2.60;91.30
26186;DHT22;20067;48.764;9.176;2023-02-15T00:26:20;2.60;91.30
26186;DHT22;20067;48.764;9.176;2023-02-15T00:28:46;2.50;91.30
26186;DHT22;20067;48.764;9.176;2023-02-15T00:31:12;2.40;91.30
26186;DHT22;20067;48.764;9.176;2023-02-15T00:33:39;2.40;91.30
26186;DHT22;20067;48.764;9.176;2023-02-15T00:36:06;2.30;91.30
26186;DHT22;20067;48.764;9.176;2023-02-15T00:38:33;2.30;91.30
26186;DHT22;20067;48.764;9.176;2023-02-15T00:41:01;2.30;91.30
26186;DHT22;20067;48.764;9.176;2023-02-15T00:43:32;2.40;91.30
26186;DHT22;20067;48.764;9.176;2023-02-15T00:45:58;2.40;91.30
26186;DHT22;20067;48.764;9.176;2023-02-15T00:48:24;2.40;91.30
26186;DHT22;20067;48.764;9.176;2023-02-15T00:50:52;2.40;91.30
26186;DHT22;20067;48.764;9.176;2023-02-15T00:53:21;2.50;91.30
26186;DHT22;20067;48.764;9.176;2023-02-15T00:55:47;2.30;91.30
26186;DHT22;20067;48.764;9.176;2023-02-15T00:58:13;2.30;91.30
26186;DHT22;20067;48.764;9.176;2023-02-15T01:00:40;2.30;91.30
26186;DHT22;20067;48.764;9.176;2023-02-15T01:03:07;2.30;91.30
26186;DHT22;20067;48.764;9.176;2023-02-15T01:05:33;2.30;91.30
26186;DHT22;20067;48.764;9.176;2023-02-15T01:07:59;2.40;91.30
26186;DHT22;20067;48.764;9.176;2023-02-15T01:10:25;2.30;91.30
26186;DHT22;20067;48.764;9.176;2023-02-15T01:12:56;2.30;91.30
26186;DHT22;20067;48.764;9.176;2023-02-15T01:15:23;2.30;91.30
26186;DHT22;20067;48.764;9.176;2023-02-15T01:17:49;2.30;91.30
26186;DHT22;20067;48.764;9.176;2023-02-15T01:20:19;2.30;91.30
26186;DHT22;20067;48.764;9.176;2023-02-15T01:22:45;2.30;91.30
26186;DHT22;20067;48.764;9.176;2023-02-15T01:25:12;2.20;91.30
26186;DHT22;20067;48.764;9.176;2023-02-15T01:27:38;2.20;91.30
26186;DHT22;20067;48.764;9.176;2023-02-15T01:30:04;2.20;91.30
26186;DHT22;20067;48.764;9.176;2023-02-15T01:32:30;2.20;91.30
26186;DHT22;20067;48.764;9.176;2023-02-15T01:34:56;2.10;91.30
26186;DHT22;20067;48.764;9.176;2023-02-15T01:37:22;2.10;91.30
26186;DHT22;20067;48.764;9.176;2023-02-15T01:39:48;2.00;91.30
26186;DHT22;20067;48.764;9.176;2023-02-15T01:42:13;2.00;91.30
26186;DHT22;20067;48.764;9.176;2023-02-15T01:44:55;2.00;91.30
26186;DHT22;20067;48.764;9.176;2023-02-15T01:47:36;2.00;91.30
26186;DHT22;20067;48.764;9.176;2023-02-15T01:50:13;2.10;91.30
26186;DHT22;20067;48.764;9.176;2023-02-15T01:52:49;2.10;91.30
26186;DHT22;20067;48.764;9.176;2023-02-15T01:55:16;2.10;91.30
26186;DHT22;20067;48.764;9.176;2023-02-15T01:57:43;2.10;91.30
26186;DHT22;20067;48.764;9.176;2023-02-15T02:00:11;2.10;91.30
26186;DHT22;20067;48.764;9.176;2023-02-15T02:02:38;2.10;91.30
26186;DHT22;20067;48.764;9.176;2023-02-15T02:05:06;2.00;91.30
26186;DHT22;20067;48.764;9.176;2023-02-15T02:07:36;2.00;91.30
26186;DHT22;20067;48.764;9.176;2023-02-15T02:10:05;1.90;91.30
26186;DHT22;20067;48.764;9.176;2023-02-15T02:12:31;1.80;91.30
26186;DHT22;20067;48.764;9.176;2023-02-15T02:14:58;1.80;91.30
26186;DHT22;20067;48.764;9.176;2023-02-15T02:34:31;1.60;91.30
26186;DHT22;20067;48.764;9.176;2023-02-15T02:37:23;1.70;91.30
26186;DHT22;20067;48.764;9.176;2023-02-15T02:42:35;1.60;91.30
26186;DHT22;20067;48.764;9.176;2023-02-15T02:45:30;1.60;91.30
26186;DHT22;20067;48.764;9.176;2023-02-15T02:48:10;1.80;91.30
26186;DHT22;20067;48.764;9.176;2023-02-15T02:50:39;1.60;91.30
26186;DHT22;20067;48.764;9.176;2023-02-15T02:53:04;1.50;91.30
26186;DHT22;20067;48.764;9.176;2023-02-15T02:55:36;1.50;91.30
26186;DHT22;20067;48.764;9.176;2023-02-15T02:58:37;1.50;91.30
26186;DHT22;20067;48.764;9.176;2023-02-15T03:01:24;1.60;91.30
26186;DHT22;20067;48.764;9.176;2023-02-15T03:04:02;1.60;91.30
26186;DHT22;20067;48.764;9.176;2023-02-15T03:06:55;1.60;91.30
26186;DHT22;20067;48.764;9.176;2023-02-15T03:09:27;1.50;91.30
26186;DHT22;20067;48.764;9.176;2023-02-15T03:12:00;1.40;91.30
26186;DHT22;20067;48.764;9.176;2023-02-15T03:14:29;1.40;91.30
26186;DHT22;20067;48.764;9.176;2023-02-15T03:16:55;1.50;91.30
26186;DHT22;20067;48.764;9.176;2023-02-15T03:19:28;1.50;91.30
26186;DHT22;20067;48.764;9.176;2023-02-15T03:21:58;1.50;91.30
26186;DHT22;20067;48.764;9.176;2023-02-15T03:24:34;1.50;91.30
26186;DHT22;20067;48.764;9.176;2023-02-15T03:27:06;1.50;91.30
26186;DHT22;20067;48.764;9.176;2023-02-15T03:29:33;1.60;91.30
26186;DHT22;20067;48.764;9.176;2023-02-15T03:32:02;1.50;91.30
26186;DHT22;20067;48.764;9.176;2023-02-15T03:34:30;1.40;91.30
26186;DHT22;20067;48.764;9.176;2023-02-15T03:39:53;1.40;91.30
26186;DHT22;20067;48.764;9.176;2023-02-15T03:42:32;1.30;91.30
26186;DHT22;20067;48.764;9.176;2023-02-15T03:45:08;1.30;91.30
26186;DHT22;20067;48.764;9.176;2023-02-15T03:47:44;1.30;91.30
26186;DHT22;20067;48.764;9.176;2023-02-15T03:50:11;1.40;91.30
26186;DHT22;20067;48.764;9.176;2023-02-15T03:52:59;1.40;91.30
26186;DHT22;20067;48.764;9.176;2023-02-15T03:55:25;1.40;91.30
26186;DHT22;20067;48.764;9.176;2023-02-15T03:57:51;1.40;91.30
26186;DHT22;20067;48.764;9.176;2023-02-15T04:00:38;1.40;91.30
26186;DHT22;20067;48.764;9.176;2023-02-15T04:05:56;1.30;91.30
26186;DHT22;20067;48.764;9.176;2023-02-15T04:08:22;1.30;91.30
26186;DHT22;20067;48.764;9.176;2023-02-15T04:11:07;1.30;91.30
26186;DHT22;20067;48.764;9.176;2023-02-15T04:13:33;1.20;91.30
26186;DHT22;20067;48.764;9.176;2023-02-15T04:15:59;1.30;91.30
26186;DHT22;20067;48.764;9.176;2023-02-15T04:18:34;1.30;91.30
26186;DHT22;20067;48.764;9.176;2023-02-15T04:21:20;1.30;91.30
26186;DHT22;20067;48.764;9.176;2023-02-15T04:24:04;1.30;91.30
26186;DHT22;20067;48.764;9.176;2023-02-15T04:26:49;1.40;91.30
26186;DHT22;20067;48.764;9.176;2023-02-15T04:29:18;1.30;91.30
26186;DHT22;20067;48.764;9.176;2023-02-15T04:31:43;1.30;91.30
26186;DHT22;20067;48.764;9.176;2023-02-15T04:34:09;1.30;91.30
26186;DHT22;20067;48.764;9.176;2023-02-15T04:36:36;1.30;91.30
26186;DHT22;20067;48.764;9.176;2023-02-15T04:39:02;1.20;91.30
26186;DHT22;20067;48.764;9.176;2023-02-15T04:41:28;1.10;91.30
26186;DHT22;20067;48.764;9.176;2023-02-15T04:43:53;1.10;91.30
26186;DHT22;20067;48.764;9.176;2023-02-15T04:46:19;1.10;91.30
26186;DHT22;20067;48.764;9.176;2023-02-15T04:48:45;1.00;91.30
26186;DHT22;20067;48.764;9.176;2023-02-15T04:51:10;1.00;91.30
26186;DHT22;20067;48.764;9.176;2023-02-15T04:53:36;1.00;91.30
26186;DHT22;20067;48.764;9.176;2023-02-15T04:56:02;1.10;91.30
26186;DHT22;20067;48.764;9.176;2023-02-15T04:58:28;1.10;91.30
26186;DHT22;20067;48.764;9.176;2023-02-15T05:00:57;1.10;91.30
26186;DHT22;20067;48.764;9.176;2023-02-15T05:03:24;1.10;91.30
26186;DHT22;20067;48.764;9.176;2023-02-15T05:05:52;1.10;91.30
26186;DHT22;20067;48.764;9.176;2023-02-15T05:08:18;1.10;91.30
26186;DHT22;20067;48.764;9.176;2023-02-15T05:10:43;1.10;91.30
26186;DHT22;20067;48.764;9.176;2023-02-15T05:13:10;1.10;91.30
26186;DHT22;20067;48.764;9.176;2023-02-15T05:15:36;1.10;91.30
26186;DHT22;20067;48.764;9.176;2023-02-15T05:18:01;1.10;91.30
26186;DHT22;20067;48.764;9.176;2023-02-15T05:20:27;1.10;91.30
26186;DHT22;20067;48.764;9.176;2023-02-15T05:23:00;1.10;91.30
26186;DHT22;20067;48.764;9.176;2023-02-15T05:25:25;1.00;91.30
26186;DHT22;20067;48.764;9.176;2023-02-15T05:28:10;0.90;91.30
26186;DHT22;20067;48.764;9.176;2023-02-15T05:33:28;0.90;91.30
26186;DHT22;20067;48.764;9.176;2023-02-15T05:35:54;0.80;91.30
26186;DHT22;20067;48.764;9.176;2023-02-15T05:38:20;0.70;91.30
26186;DHT22;20067;48.764;9.176;2023-02-15T05:40:45;0.70;91.30
26186;DHT22;20067;48.764;9.176;2023-02-15T05:43:11;0.70;91.30
26186;DHT22;20067;48.764;9.176;2023-02-15T05:45:37;0.70;91.30
26186;DHT22;20067;48.764;9.176;2023-02-15T05:48:02;0.80;91.30
26186;DHT22;20067;48.764;9.176;2023-02-15T05:50:28;0.80;91.30
26186;DHT22;20067;48.764;9.176;2023-02-15T05:52:54;0.80;91.30
26186;DHT22;20067;48.764;9.176;2023-02-15T05:55:19;0.90;91.30
26186;DHT22;20067;48.764;9.176;2023-02-15T05:57:45;0.90;91.30
26186;DHT22;20067;48.764;9.176;2023-02-15T06:00:12;0.90;91.30
26186;DHT22;20067;48.764;9.176;2023-02-15T06:02:39;0.90;91.30
26186;DHT22;20067;48.764;9.176;2023-02-15T06:05:06;0.90;91.30
26186;DHT22;20067;48.764;9.176;2023-02-15T06:07:31;0.90;91.30
26186;DHT22;20067;48.764;9.176;2023-02-15T06:09:57;0.90;91.30
26186;DHT22;20067;48.764;9.176;2023-02-15T06:12:23;0.90;91.30
26186;DHT22;20067;48.764;9.176;2023-02-15T06:14:48;0.90;91.30
26186;DHT22;20067;48.764;9.176;2023-02-15T06:17:14;0.80;91.30
26186;DHT22;20067;48.764;9.176;2023-02-15T06:19:40;0.80;91.30
26186;DHT22;20067;48.764;9.176;2023-02-15T06:22:05;0.80;91.30
26186;DHT22;20067;48.764;9.176;2023-02-15T06:24:32;0.70;91.30
26186;DHT22;20067;48.764;9.176;2023-02-15T06:26:58;0.80;91.30
26186;DHT22;20067;48.764;9.176;2023-02-15T06:29:23;0.80;91.30
26186;DHT22;20067;48.764;9.176;2023-02-15T06:31:49;0.80;91.30
26186;DHT22;20067;48.764;9.176;2023-02-15T06:34:15;0.80;91.30
26186;DHT22;20067;48.764;9.176;2023-02-15T06:36:40;0.80;91.30
26186;DHT22;20067;48.764;9.176;2023-02-15T06:39:06;0.80;91.30
26186;DHT22;20067;48.764;9.176;2023-02-15T06:41:32;0.80;91.30
26186;DHT22;20067;48.764;9.176;2023-02-15T06:43:57;0.80;91.30
26186;DHT22;20067;48.764;9.176;2023-02-15T06:46:23;0.70;91.30
26186;DHT22;20067;48.764;9.176;2023-02-15T06:48:49;0.70;91.30
26186;DHT22;20067;48.764;9.176;2023-02-15T06:51:14;0.70;91.30
26186;DHT22;20067;48.764;9.176;2023-02-15T06:53:40;0.80;91.30
26186;DHT22;20067;48.764;9.176;2023-02-15T06:56:10;0.80;91.30
26186;DHT22;20067;48.764;9.176;2023-02-15T06:58:37;0.80;91.30
26186;DHT22;20067;48.764;9.176;2023-02-15T07:01:03;0.90;91.30
26186;DHT22;20067;48.764;9.176;2023-02-15T07:03:29;0.90;91.30
26186;DHT22;20067;48.764;9.176;2023-02-15T07:06:00;1.00;91.30
26186;DHT22;20067;48.764;9.176;2023-02-15T07:08:27;1.00;91.30
26186;DHT22;20067;48.764;9.176;2023-02-15T07:10:55;1.00;91.30
26186;DHT22;20067;48.764;9.176;2023-02-15T07:13:41;1.00;91.30
26186;DHT22;20067;48.764;9.176;2023-02-15T07:16:08;1.00;91.30
26186;DHT22;20067;48.764;9.176;2023-02-15T07:18:34;1.00;91.30
26186;DHT22;20067;48.764;9.176;2023-02-15T07:21:00;1.00;91.30
26186;DHT22;20067;48.764;9.176;2023-02-15T07:23:25;0.90;91.30
26186;DHT22;20067;48.764;9.176;2023-02-15T07:25:59;0.90;91.30
26186;DHT22;20067;48.764;9.176;2023-02-15T07:28:25;0.90;91.30
26186;DHT22;20067;48.764;9.176;2023-02-15T07:30:51;0.90;91.30
26186;DHT22;20067;48.764;9.176;2023-02-15T07:33:17;0.90;91.30
26186;DHT22;20067;48.764;9.176;2023-02-15T07:35:52;0.90;91.30
26186;DHT22;20067;48.764;9.176;2023-02-15T07:38:20;0.90;91.30
26186;DHT22;20067;48.764;9.176;2023-02-15T07:40:45;0.90;91.30
26186;DHT22;20067;48.764;9.176;2023-02-15T07:43:12;0.70;91.30
26186;DHT22;20067;48.764;9.176;2023-02-15T07:45:38;0.60;91.30
26186;DHT22;20067;48.764;9.176;2023-02-15T07:48:05;0.60;91.30
26186;DHT22;20067;48.764;9.176;2023-02-15T07:50:31;0.40;91.30
26186;DHT22;20067;48.764;9.176;2023-02-15T07:52:58;0.50;91.30
26186;DHT22;20067;48.764;9.176;2023-02-15T07:55:24;0.60;91.30
26186;DHT22;20067;48.764;9.176;2023-02-15T07:57:50;0.60;91.30
26186;DHT22;20067;48.764;9.176;2023-02-15T08:00:18;0.60;91.30
26186;DHT22;20067;48.764;9.176;2023-02-15T08:02:50;0.70;91.30
26186;DHT22;20067;48.764;9.176;2023-02-15T08:05:35;0.90;91.30
26186;DHT22;20067;48.764;9.176;2023-02-15T08:08:00;0.90;91.30
26186;DHT22;20067;48.764;9.176;2023-02-15T08:10:26;0.90;91.30
26186;DHT22;20067;48.764;9.176;2023-02-15T08:13:12;1.00;91.30
26186;DHT22;20067;48.764;9.176;2023-02-15T08:15:37;1.10;91.30
26186;DHT22;20067;48.764;9.176;2023-02-15T08:18:03;1.20;91.30
26186;DHT22;20067;48.764;9.176;2023-02-15T08:20:28;1.30;91.30
26186;DHT22;20067;48.764;9.176;2023-02-15T08:22:54;1.20;91.30
26186;DHT22;20067;48.764;9.176;2023-02-15T08:25:20;1.40;91.30
26186;DHT22;20067;48.764;9.176;2023-02-15T08:27:45;1.40;91.30
26186;DHT22;20067;48.764;9.176;2023-02-15T08:30:11;1.30;91.30
26186;DHT22;20067;48.764;9.176;2023-02-15T08:32:39;1.10;91.30
26186;DHT22;20067;48.764;9.176;2023-02-15T08:35:05;1.20;91.30
26186;DHT22;20067;48.764;9.176;2023-02-15T08:37:30;1.70;91.30
26186;DHT22;20067;48.764;9.176;2023-02-15T08:39:56;3.20;91.30
26186;DHT22;20067;48.764;9.176;2023-02-15T08:42:22;5.10;91.30
26186;DHT22;20067;48.764;9.176;2023-02-15T08:44:47;6.90;85.30
26186;DHT22;20067;48.764;9.176;2023-02-15T08:47:15;8.80;80.70
26186;DHT22;20067;48.764;9.176;2023-02-15T08:49:41;10.10;73.90
26186;DHT22;20067;48.764;9.176;2023-02-15T08:52:07;10.30;72.70
26186;DHT22;20067;48.764;9.176;2023-02-15T08:54:32;11.00;71.40
26186;DHT22;20067;48.764;9.176;2023-02-15T08:56:58;12.20;68.90
26186;DHT22;20067;48.764;9.176;2023-02-15T08:59:25;12.70;65.50
26186;DHT22;20067;48.764;9.176;2023-02-15T09:01:53;11.60;66.40
26186;DHT22;20067;48.764;9.176;2023-02-15T09:04:20;10.70;68.30
26186;DHT22;20067;48.764;9.176;2023-02-15T09:06:47;11.30;68.80
26186;DHT22;20067;48.764;9.176;2023-02-15T09:09:14;9.60;70.30
26186;DHT22;20067;48.764;9.176;2023-02-15T09:11:42;10.20;70.40
26186;DHT22;20067;48.764;9.176;2023-02-15T09:14:11;10.90;70.30
26186;DHT22;20067;48.764;9.176;2023-02-15T09:16:40;12.60;65.80
26186;DHT22;20067;48.764;9.176;2023-02-15T09:19:06;13.70;64.00
26186;DHT22;20067;48.764;9.176;2023-02-15T09:21:36;14.60;61.50
26186;DHT22;20067;48.764;9.176;2023-02-15T09:24:04;14.90;59.70
26186;DHT22;20067;48.764;9.176;2023-02-15T09:26:33;15.00;59.90
26186;DHT22;20067;48.764;9.176;2023-02-15T09:29:00;15.20;58.50
26186;DHT22;20067;48.764;9.176;2023-02-15T09:31:31;13.60;60.80
26186;DHT22;20067;48.764;9.176;2023-02-15T09:33:58;12.80;63.30
26186;DHT22;20067;48.764;9.176;2023-02-15T09:36:35;14.00;61.70
26186;DHT22;20067;48.764;9.176;2023-02-15T09:39:04;14.80;59.50
26186;DHT22;20067;48.764;9.176;2023-02-15T09:55:33;14.80;60.70
26186;DHT22;20067;48.764;9.176;2023-02-15T10:11:15;16.30;57.10
26186;DHT22;20067;48.764;9.176;2023-02-15T10:17:02;15.20;57.70
26186;DHT22;20067;48.764;9.176;2023-02-15T10:28:41;15.40;58.90
26186;DHT22;20067;48.764;9.176;2023-02-15T10:31:24;15.30;59.10
26186;DHT22;20067;48.764;9.176;2023-02-15T10:36:49;14.40;59.90
26186;DHT22;20067;48.764;9.176;2023-02-15T10:57:47;13.80;62.30
26186;DHT22;20067;48.764;9.176;2023-02-15T11:03:25;14.90;62.20
26186;DHT22;20067;48.764;9.176;2023-02-15T11:08:50;17.10;56.80
26186;DHT22;20067;48.764;9.176;2023-02-15T11:11:24;18.00;53.40
26186;DHT22;20067;48.764;9.176;2023-02-15T11:13:57;18.70;53.30
26186;DHT22;20067;48.764;9.176;2023-02-15T11:16:37;20.00;50.30
26186;DHT22;20067;48.764;9.176;2023-02-15T11:19:28;19.70;50.80
26186;DHT22;20067;48.764;9.176;2023-02-15T11:22:00;19.50;51.00
26186;DHT22;20067;48.764;9.176;2023-02-15T11:24:29;20.40;50.10
26186;DHT22;20067;48.764;9.176;2023-02-15T11:27:03;21.10;49.10
26186;DHT22;20067;48.764;9.176;2023-02-15T11:32:28;19.50;51.00
26186;DHT22;20067;48.764;9.176;2023-02-15T11:37:48;19.80;50.30
26186;DHT22;20067;48.764;9.176;2023-02-15T11:42:53;17.00;56.50
26186;DHT22;20067;48.764;9.176;2023-02-15T11:45:32;16.90;54.70
26186;DHT22;20067;48.764;9.176;2023-02-15T11:48:00;16.50;56.40
26186;DHT22;20067;48.764;9.176;2023-02-15T11:50:28;17.20;55.10
26186;DHT22;20067;48.764;9.176;2023-02-15T11:53:12;16.70;56.20
26186;DHT22;20067;48.764;9.176;2023-02-15T11:55:38;14.50;59.40
26186;DHT22;20067;48.764;9.176;2023-02-15T11:58:40;13.10;63.30
26186;DHT22;20067;48.764;9.176;2023-02-15T12:03:47;11.80;66.90
26186;DHT22;20067;48.764;9.176;2023-02-15T12:11:37;9.60;73.70
26186;DHT22;20067;48.764;9.176;2023-02-15T12:14:13;9.20;75.50
26186;DHT22;20067;48.764;9.176;2023-02-15T12:16:53;9.20;76.30
26186;DHT22;20067;48.764;9.176;2023-02-15T12:19:39;8.70;77.20
26186;DHT22;20067;48.764;9.176;2023-02-15T12:22:17;8.50;78.30
26186;DHT22;20067;48.764;9.176;2023-02-15T12:24:47;8.60;78.30
26186;DHT22;20067;48.764;9.176;2023-02-15T12:27:17;8.50;78.90
26186;DHT22;20067;48.764;9.176;2023-02-15T12:29:50;8.80;78.20
26186;DHT22;20067;48.764;9.176;2023-02-15T12:32:22;8.80;77.90
26186;DHT22;20067;48.764;9.176;2023-02-15T12:34:51;8.70;78.20
26186;DHT22;20067;48.764;9.176;2023-02-15T12:37:23;8.60;78.90
26186;DHT22;20067;48.764;9.176;2023-02-15T12:39:56;8.70;78.80
26186;DHT22;20067;48.764;9.176;2023-02-15T12:42:23;8.70;79.20
26186;DHT22;20067;48.764;9.176;2023-02-15T12:45:32;8.50;79.50
26186;DHT22;20067;48.764;9.176;2023-02-15T12:50:40;8.80;79.70
26186;DHT22;20067;48.764;9.176;2023-02-15T12:53:22;8.90;79.50
26186;DHT22;20067;48.764;9.176;2023-02-15T12:55:55;8.90;79.50
26186;DHT22;20067;48.764;9.176;2023-02-15T12:58:28;9.00;79.40
26186;DHT22;20067;48.764;9.176;2023-02-15T13:03:28;9.00;79.80
26186;DHT22;20067;48.764;9.176;2023-02-15T13:05:56;8.90;80.40
26186;DHT22;20067;48.764;9.176;2023-02-15T13:08:28;9.00;80.20
26186;DHT22;20067;48.764;9.176;2023-02-15T13:11:10;9.20;79.90
26186;DHT22;20067;48.764;9.176;2023-02-15T13:13:55;9.30;79.50
26186;DHT22;20067;48.764;9.176;2023-02-15T13:16:38;9.40;79.20
26186;DHT22;20067;48.764;9.176;2023-02-15T13:21:48;9.50;78.70
26186;DHT22;20067;48.764;9.176;2023-02-15T13:24:25;9.60;78.60
26186;DHT22;20067;48.764;9.176;2023-02-15T13:26:54;9.50;78.90
26186;DHT22;20067;48.764;9.176;2023-02-15T13:29:28;9.50;79.00
26186;DHT22;20067;48.764;9.176;2023-02-15T13:32:07;9.40;79.70
26186;DHT22;20067;48.764;9.176;2023-02-15T13:34:39;9.40;80.00
26186;DHT22;20067;48.764;9.176;2023-02-15T13:37:40;9.40;79.90
26186;DHT22;20067;48.764;9.176;2023-02-15T13:45:33;9.70;79.30
26186;DHT22;20067;48.764;9.176;2023-02-15T13:56:02;9.70;79.70
26186;DHT22;20067;48.764;9.176;2023-02-15T13:59:27;9.80;79.70
26186;DHT22;20067;48.764;9.176;2023-02-15T14:02:11;9.90;79.50
26186;DHT22;20067;48.764;9.176;2023-02-15T14:05:16;10.10;79.20
26186;DHT22;20067;48.764;9.176;2023-02-15T14:08:00;10.10;79.10
26186;DHT22;20067;48.764;9.176;2023-02-15T14:21:56;10.00;79.20
26186;DHT22;20067;48.764;9.176;2023-02-15T14:32:10;10.00;79.20
26186;DHT22;20067;48.764;9.176;2023-02-15T14:34:48;10.00;79.20
26186;DHT22;20067;48.764;9.176;2023-02-15T14:37:22;10.10;78.70
26186;DHT22;20067;48.764;9.176;2023-02-15T14:40:03;10.10;78.80
26186;DHT22;20067;48.764;9.176;2023-02-15T14:43:19;10.10;78.60
26186;DHT22;20067;48.764;9.176;2023-02-15T14:48:28;10.20;78.40
26186;DHT22;20067;48.764;9.176;2023-02-15T14:50:55;10.20;77.80
26186;DHT22;20067;48.764;9.176;2023-02-15T14:59:13;10.20;76.70
26186;DHT22;20067;48.764;9.176;2023-02-15T15:01:40;10.10;76.90
26186;DHT22;20067;48.764;9.176;2023-02-15T15:06:40;10.10;77.10
26186;DHT22;20067;48.764;9.176;2023-02-15T15:09:14;10.10;76.70
26186;DHT22;20067;48.764;9.176;2023-02-15T15:11:50;10.20;75.70
26186;DHT22;20067;48.764;9.176;2023-02-15T15:17:04;10.20;75.80
26186;DHT22;20067;48.764;9.176;2023-02-15T15:22:22;10.20;75.70
26186;DHT22;20067;48.764;9.176;2023-02-15T15:27:54;10.50;75.60
26186;DHT22;20067;48.764;9.176;2023-02-15T15:32:57;10.50;75.40
26186;DHT22;20067;48.764;9.176;2023-02-15T15:49:36;10.30;76.60
26186;DHT22;20067;48.764;9.176;2023-02-15T15:52:15;10.50;76.70
26186;DHT22;20067;48.764;9.176;2023-02-15T15:54:42;10.50;76.50
26186;DHT22;20067;48.764;9.176;2023-02-15T15:57:19;10.60;76.80
26186;DHT22;20067;48.764;9.176;2023-02-15T15:59:47;10.50;77.20
26186;DHT22;20067;48.764;9.176;2023-02-15T16:02:16;10.40;77.40
26186;DHT22;20067;48.764;9.176;2023-02-15T16:04:43;10.30;77.90
26186;DHT22;20067;48.764;9.176;2023-02-15T16:07:28;10.10;78.40
26186;DHT22;20067;48.764;9.176;2023-02-15T16:10:05;10.00;79.00
26186;DHT22;20067;48.764;9.176;2023-02-15T16:12:36;9.90;79.30
26186;DHT22;20067;48.764;9.176;2023-02-15T16:15:16;9.70;79.90
26186;DHT22;20067;48.764;9.176;2023-02-15T16:17:45;9.60;80.30
26186;DHT22;20067;48.764;9.176;2023-02-15T16:20:26;9.50;80.80
26186;DHT22;20067;48.764;9.176;2023-02-15T16:28:28;9.10;82.20
26186;DHT22;20067;48.764;9.176;2023-02-15T16:31:15;9.00;82.60
26186;DHT22;20067;48.764;9.176;2023-02-15T16:33:42;8.80;82.90
26186;DHT22;20067;48.764;9.176;2023-02-15T16:36:22;8.70;83.40
26186;DHT22;20067;48.764;9.176;2023-02-15T16:41:29;8.60;84.00
26186;DHT22;20067;48.764;9.176;2023-02-15T16:43:58;8.60;83.80
26186;DHT22;20067;48.764;9.176;2023-02-15T16:46:38;8.50;84.20
26186;DHT22;20067;48.764;9.176;2023-02-15T16:49:15;8.40;84.60
26186;DHT22;20067;48.764;9.176;2023-02-15T16:51:43;8.30;84.70
26186;DHT22;20067;48.764;9.176;2023-02-15T16:54:19;8.20;84.90
26186;DHT22;20067;48.764;9.176;2023-02-15T16:56:46;8.20;84.80
26186;DHT22;20067;48.764;9.176;2023-02-15T16:59:35;8.20;84.90
26186;DHT22;20067;48.764;9.176;2023-02-15T17:02:06;8.00;85.40
26186;DHT22;20067;48.764;9.176;2023-02-15T17:04:37;7.80;85.50
26186;DHT22;20067;48.764;9.176;2023-02-15T17:07:18;7.70;85.60
26186;DHT22;20067;48.764;9.176;2023-02-15T17:09:55;7.60;85.90
26186;DHT22;20067;48.764;9.176;2023-02-15T17:12:53;7.60;86.20
26186;DHT22;20067;48.764;9.176;2023-02-15T17:17:59;7.50;85.10
26186;DHT22;20067;48.764;9.176;2023-02-15T17:20:25;7.50;84.30
26186;DHT22;20067;48.764;9.176;2023-02-15T17:22:52;7.50;84.00
26186;DHT22;20067;48.764;9.176;2023-02-15T17:25:26;7.40;84.30
26186;DHT22;20067;48.764;9.176;2023-02-15T17:27:55;7.40;84.90
26186;DHT22;20067;48.764;9.176;2023-02-15T17:30:29;7.40;84.60
26186;DHT22;20067;48.764;9.176;2023-02-15T17:32:58;7.40;84.40
26186;DHT22;20067;48.764;9.176;2023-02-15T17:35:30;7.30;83.90
26186;DHT22;20067;48.764;9.176;2023-02-15T17:40:38;7.10;84.40
26186;DHT22;20067;48.764;9.176;2023-02-15T17:43:04;7.00;84.70
26186;DHT22;20067;48.764;9.176;2023-02-15T17:45:33;7.00;84.70
26186;DHT22;20067;48.764;9.176;2023-02-15T17:48:02;6.90;84.80
26186;DHT22;20067;48.764;9.176;2023-02-15T17:50:28;7.00;84.90
26186;DHT22;20067;48.764;9.176;2023-02-15T17:52:55;6.90;85.10
26186;DHT22;20067;48.764;9.176;2023-02-15T17:55:23;6.90;85.50
26186;DHT22;20067;48.764;9.176;2023-02-15T17:58:16;6.80;85.90
26186;DHT22;20067;48.764;9.176;2023-02-15T18:00:45;6.90;85.60
26186;DHT22;20067;48.764;9.176;2023-02-15T18:06:26;6.90;85.70
26186;DHT22;20067;48.764;9.176;2023-02-15T18:09:13;6.80;86.10
26186;DHT22;20067;48.764;9.176;2023-02-15T18:11:57;6.70;87.00
26186;DHT22;20067;48.764;9.176;2023-02-15T18:14:23;6.60;87.70
26186;DHT22;20067;48.764;9.176;2023-02-15T18:16:52;6.60;87.70
26186;DHT22;20067;48.764;9.176;2023-02-15T18:19:21;6.60;87.80
26186;DHT22;20067;48.764;9.176;2023-02-15T18:21:48;6.50;88.00
26186;DHT22;20067;48.764;9.176;2023-02-15T18:24:19;6.50;88.20
26186;DHT22;20067;48.764;9.176;2023-02-15T18:26:46;6.40;88.40
26186;DHT22;20067;48.764;9.176;2023-02-15T18:29:12;6.40;88.50
26186;DHT22;20067;48.764;9.176;2023-02-15T18:31:38;6.40;88.80
26186;DHT22;20067;48.764;9.176;2023-02-15T18:34:05;6.40;89.10
26186;DHT22;20067;48.764;9.176;2023-02-15T18:36:39;6.20;89.80
26186;DHT22;20067;48.764;9.176;2023-02-15T18:39:37;6.20;90.00
26186;DHT22;20067;48.764;9.176;2023-02-15T18:44:48;6.10;90.40
26186;DHT22;20067;48.764;9.176;2023-02-15T18:47:14;6.10;90.20
26186;DHT22;20067;48.764;9.176;2023-02-15T18:49:39;6.10;90.30
26186;DHT22;20067;48.764;9.176;2023-02-15T18:52:05;6.10;90.30
26186;DHT22;20067;48.764;9.176;2023-02-15T18:54:34;6.10;90.40
26186;DHT22;20067;48.764;9.176;2023-02-15T18:57:00;6.00;90.50
26186;DHT22;20067;48.764;9.176;2023-02-15T18:59:27;6.10;90.50
26186;DHT22;20067;48.764;9.176;2023-02-15T19:01:56;6.00;90.60
26186;DHT22;20067;48.764;9.176;2023-02-15T19:04:22;5.90;90.90
26186;DHT22;20067;48.764;9.176;2023-02-15T19:06:48;5.70;91.30
26186;DHT22;20067;48.764;9.176;2023-02-15T19:09:23;5.70;91.30
26186;DHT22;20067;48.764;9.176;2023-02-15T19:11:54;5.70;91.30
26186;DHT22;20067;48.764;9.176;2023-02-15T19:14:28;5.70;91.30
26186;DHT22;20067;48.764;9.176;2023-02-15T19:16:55;5.70;91.30
26186;DHT22;20067;48.764;9.176;2023-02-15T19:19:22;5.50;91.30
26186;DHT22;20067;48.764;9.176;2023-02-15T19:21:48;5.50;91.30
26186;DHT22;20067;48.764;9.176;2023-02-15T19:24:23;5.50;91.30
26186;DHT22;20067;48.764;9.176;2023-02-15T19:26:50;5.60;91.30
26186;DHT22;20067;48.764;9.176;2023-02-15T19:29:26;5.50;91.30
26186;DHT22;20067;48.764;9.176;2023-02-15T19:31:52;5.50;91.30
26186;DHT22;20067;48.764;9.176;2023-02-15T19:34:18;5.50;91.30